sensor_id;sensor_type;location;lat;lon;timestamp;pressure;altitude;pressure_sealevel;temperature;humidity
11172;BME280;5642;50.830;12.082;2023-03-19T00:00:09;99151.41;;;11.92;37.58
11172;BME280;5642;50.830;12.082;2023-03-19T00:02:36;99170.38;;;11.98;37.76
11172;BME280;5642;50.830;12.082;2023-03-19T00:05:04;99172.84;;;12.01;37.54
11172;BME280;5642;50.830;12.082;2023-03-19T00:07:30;99163.16;;;12.03;37.62
11172;BME280;5642;50.830;12.082;2023-03-19T00:09:56;99166.63;;;12.04;37.58
11172;BME280;5642;50.830;12.082;2023-03-19T00:12:22;99157.97;;;12.02;37.52
11172;BME280;5642;50.830;12.082;2023-03-19T00:14:48;99150.34;;;11.96;37.80
11172;BME280;5642;50.830;12.082;2023-03-19T00:17:15;99139.97;;;11.93;37.34
11172;BME280;5642;50.830;12.082;2023-03-19T00:19:41;99152.09;;;11.95;37.57
11172;BME280;5642;50.830;12.082;2023-03-19T00:22:08;99117.97;;;11.75;37.39
11172;BME280;5642;50.830;12.082;2023-03-19T00:24:35;99161.03;;;11.91;37.65
11172;BME280;5642;50.830;12.082;2023-03-19T00:27:01;99138.03;;;11.76;37.57
11172;BME280;5642;50.830;12.082;2023-03-19T00:29:28;99139.06;;;11.72;37.56
11172;BME280;5642;50.830;12.082;2023-03-19T00:31:55;99159.44;;;11.87;37.56
11172;BME280;5642;50.830;12.082;2023-03-19T00:34:21;99160.38;;;11.86;37.82
11172;BME280;5642;50.830;12.082;2023-03-19T00:36:47;99158.78;;;11.82;37.64
11172;BME280;5642;50.830;12.082;2023-03-19T00:39:14;99145.97;;;11.74;37.81
11172;BME280;5642;50.830;12.082;2023-03-19T00:41:40;99157.47;;;11.70;37.80
11172;BME280;5642;50.830;12.082;2023-03-19T00:44:07;99156.47;;;11.73;37.90
11172;BME280;5642;50.830;12.082;2023-03-19T00:46:34;99152.00;;;11.76;37.79
11172;BME280;5642;50.830;12.082;2023-03-19T00:49:01;99152.81;;;11.79;38.05
11172;BME280;5642;50.830;12.082;2023-03-19T00:51:27;99162.19;;;11.84;37.84
11172;BME280;5642;50.830;12.082;2023-03-19T00:53:53;99126.16;;;11.66;37.72
11172;BME280;5642;50.830;12.082;2023-03-19T00:56:21;99158.56;;;11.87;37.56
11172;BME280;5642;50.830;12.082;2023-03-19T00:58:47;99151.41;;;11.92;37.92
11172;BME280;5642;50.830;12.082;2023-03-19T01:01:15;99154.63;;;11.98;37.75
11172;BME280;5642;50.830;12.082;2023-03-19T01:03:43;99139.78;;;11.97;37.87
11172;BME280;5642;50.830;12.082;2023-03-19T01:06:10;99155.16;;;12.06;37.73
11172;BME280;5642;50.830;12.082;2023-03-19T01:08:37;99149.00;;;12.07;37.51
11172;BME280;5642;50.830;12.082;2023-03-19T01:11:05;99146.44;;;12.06;37.72
11172;BME280;5642;50.830;12.082;2023-03-19T01:13:32;99149.06;;;12.06;37.67
11172;BME280;5642;50.830;12.082;2023-03-19T01:15:58;99150.81;;;12.05;37.80
11172;BME280;5642;50.830;12.082;2023-03-19T01:18:25;99143.00;;;12.04;37.71
11172;BME280;5642;50.830;12.082;2023-03-19T01:20:52;99152.34;;;12.11;37.86
11172;BME280;5642;50.830;12.082;2023-03-19T01:23:19;99155.88;;;12.10;37.69
11172;BME280;5642;50.830;12.082;2023-03-19T01:25:46;99149.72;;;12.11;37.77
11172;BME280;5642;50.830;12.082;2023-03-19T01:28:12;99140.31;;;12.05;37.82
11172;BME280;5642;50.830;12.082;2023-03-19T01:30:38;99144.56;;;12.08;37.48
11172;BME280;5642;50.830;12.082;2023-03-19T01:33:06;99151.28;;;12.15;37.58
11172;BME280;5642;50.830;12.082;2023-03-19T01:35:33;99142.56;;;12.14;37.68
11172;BME280;5642;50.830;12.082;2023-03-19T01:37:59;99125.38;;;12.07;37.71
11172;BME280;5642;50.830;12.082;2023-03-19T01:40:26;99146.81;;;12.17;37.62
11172;BME280;5642;50.830;12.082;2023-03-19T01:43:06;99148.53;;;12.18;37.54
11172;BME280;5642;50.830;12.082;2023-03-19T01:45:40;99140.06;;;12.11;37.83
11172;BME280;5642;50.830;12.082;2023-03-19T01:50:58;99146.72;;;12.20;37.63
11172;BME280;5642;50.830;12.082;2023-03-19T01:53:31;99131.91;;;12.18;37.87
11172;BME280;5642;50.830;12.082;2023-03-19T01:56:03;99132.41;;;12.27;37.81
11172;BME280;5642;50.830;12.082;2023-03-19T01:58:32;99134.09;;;12.28;37.76
11172;BME280;5642;50.830;12.082;2023-03-19T02:00:58;99153.78;;;12.38;37.57
11172;BME280;5642;50.830;12.082;2023-03-19T02:03:24;99122.06;;;12.23;37.62
11172;BME280;5642;50.830;12.082;2023-03-19T02:05:53;99125.28;;;12.29;37.60
11172;BME280;5642;50.830;12.082;2023-03-19T02:08:22;99149.28;;;12.42;37.54
11172;BME280;5642;50.830;12.082;2023-03-19T02:10:50;99153.84;;;12.37;37.70
11172;BME280;5642;50.830;12.082;2023-03-19T02:13:18;99154.06;;;12.32;37.63
11172;BME280;5642;50.830;12.082;2023-03-19T02:15:44;99139.41;;;12.27;37.86
11172;BME280;5642;50.830;12.082;2023-03-19T02:18:11;99134.34;;;12.22;37.87
11172;BME280;5642;50.830;12.082;2023-03-19T02:21:08;99134.34;;;12.22;37.92
11172;BME280;5642;50.830;12.082;2023-03-19T02:26:21;99149.50;;;12.15;37.68
11172;BME280;5642;50.830;12.082;2023-03-19T02:28:49;99156.66;;;12.12;37.99
11172;BME280;5642;50.830;12.082;2023-03-19T02:31:16;99159.41;;;12.09;38.13
11172;BME280;5642;50.830;12.082;2023-03-19T02:33:43;99151.69;;;12.06;37.96
11172;BME280;5642;50.830;12.082;2023-03-19T02:36:15;99158.81;;;12.02;38.20
11172;BME280;5642;50.830;12.082;2023-03-19T02:38:45;99147.25;;;11.86;38.10
11172;BME280;5642;50.830;12.082;2023-03-19T02:41:13;99159.75;;;11.80;38.02
11172;BME280;5642;50.830;12.082;2023-03-19T02:43:42;99167.63;;;11.80;38.32
11172;BME280;5642;50.830;12.082;2023-03-19T02:46:10;99164.53;;;11.68;38.54
11172;BME280;5642;50.830;12.082;2023-03-19T02:48:38;99155.16;;;11.63;38.46
11172;BME280;5642;50.830;12.082;2023-03-19T02:51:04;99168.22;;;11.64;38.62
11172;BME280;5642;50.830;12.082;2023-03-19T02:53:30;99163.19;;;11.58;38.37
11172;BME280;5642;50.830;12.082;2023-03-19T02:55:56;99167.97;;;11.49;38.58
11172;BME280;5642;50.830;12.082;2023-03-19T02:58:22;99157.81;;;11.39;38.55
11172;BME280;5642;50.830;12.082;2023-03-19T03:00:48;99163.13;;;11.38;38.26
11172;BME280;5642;50.830;12.082;2023-03-19T03:03:16;99165.94;;;11.33;38.50
11172;BME280;5642;50.830;12.082;2023-03-19T03:05:42;99166.16;;;11.27;38.70
11172;BME280;5642;50.830;12.082;2023-03-19T03:08:09;99153.44;;;11.17;38.44
11172;BME280;5642;50.830;12.082;2023-03-19T03:10:35;99115.22;;;10.88;38.47
11172;BME280;5642;50.830;12.082;2023-03-19T03:13:02;99173.75;;;11.12;38.61
11172;BME280;5642;50.830;12.082;2023-03-19T03:15:30;99161.97;;;11.00;38.67
11172;BME280;5642;50.830;12.082;2023-03-19T03:17:57;99172.31;;;11.03;38.63
11172;BME280;5642;50.830;12.082;2023-03-19T03:20:23;99171.66;;;10.98;38.86
11172;BME280;5642;50.830;12.082;2023-03-19T03:22:49;99153.06;;;10.81;38.87
11172;BME280;5642;50.830;12.082;2023-03-19T03:25:16;99171.03;;;10.91;38.87
11172;BME280;5642;50.830;12.082;2023-03-19T03:27:43;99133.22;;;10.74;38.69
11172;BME280;5642;50.830;12.082;2023-03-19T03:30:10;99145.59;;;10.70;38.92
11172;BME280;5642;50.830;12.082;2023-03-19T03:32:37;99179.19;;;10.82;38.76
11172;BME280;5642;50.830;12.082;2023-03-19T03:35:05;99136.47;;;10.57;38.81
11172;BME280;5642;50.830;12.082;2023-03-19T03:37:31;99154.47;;;10.66;38.94
11172;BME280;5642;50.830;12.082;2023-03-19T03:39:58;99153.91;;;10.58;39.00
11172;BME280;5642;50.830;12.082;2023-03-19T03:42:24;99171.13;;;10.65;38.89
11172;BME280;5642;50.830;12.082;2023-03-19T03:44:51;99181.63;;;10.64;38.95
11172;BME280;5642;50.830;12.082;2023-03-19T03:47:17;99170.34;;;10.62;39.02
11172;BME280;5642;50.830;12.082;2023-03-19T03:49:43;99162.88;;;10.51;38.86
11172;BME280;5642;50.830;12.082;2023-03-19T03:52:10;99177.63;;;10.53;39.03
11172;BME280;5642;50.830;12.082;2023-03-19T03:54:36;99174.94;;;10.55;39.03
11172;BME280;5642;50.830;12.082;2023-03-19T03:57:03;99178.38;;;10.57;39.06
11172;BME280;5642;50.830;12.082;2023-03-19T03:59:29;99163.03;;;10.46;38.79
11172;BME280;5642;50.830;12.082;2023-03-19T04:01:55;99162.97;;;10.48;38.98
11172;BME280;5642;50.830;12.082;2023-03-19T04:04:22;99172.34;;;10.55;39.41
11172;BME280;5642;50.830;12.082;2023-03-19T04:06:48;99169.66;;;10.56;39.40
11172;BME280;5642;50.830;12.082;2023-03-19T04:09:14;99159.41;;;10.50;39.18
11172;BME280;5642;50.830;12.082;2023-03-19T04:11:42;99185.34;;;10.58;39.18
11172;BME280;5642;50.830;12.082;2023-03-19T04:14:08;99186.34;;;10.54;39.17
11172;BME280;5642;50.830;12.082;2023-03-19T04:16:34;99170.09;;;10.44;39.01
11172;BME280;5642;50.830;12.082;2023-03-19T04:19:00;99186.53;;;10.48;39.07
11172;BME280;5642;50.830;12.082;2023-03-19T04:21:27;99189.25;;;10.45;39.21
11172;BME280;5642;50.830;12.082;2023-03-19T04:23:54;99184.31;;;10.37;39.23
11172;BME280;5642;50.830;12.082;2023-03-19T04:26:20;99195.56;;;10.39;39.11
11172;BME280;5642;50.830;12.082;2023-03-19T04:28:47;99195.69;;;10.36;39.13
11172;BME280;5642;50.830;12.082;2023-03-19T04:31:14;99189.69;;;10.33;39.18
11172;BME280;5642;50.830;12.082;2023-03-19T04:33:40;99199.44;;;10.29;39.20
11172;BME280;5642;50.830;12.082;2023-03-19T04:36:06;99203.06;;;10.24;39.30
11172;BME280;5642;50.830;12.082;2023-03-19T04:38:33;99200.53;;;10.22;39.17
11172;BME280;5642;50.830;12.082;2023-03-19T04:41:02;99169.09;;;9.96;39.20
11172;BME280;5642;50.830;12.082;2023-03-19T04:43:30;99141.72;;;9.79;39.39
11172;BME280;5642;50.830;12.082;2023-03-19T04:45:57;99205.09;;;10.15;39.30
11172;BME280;5642;50.830;12.082;2023-03-19T04:48:24;99181.78;;;10.08;39.50
11172;BME280;5642;50.830;12.082;2023-03-19T04:50:51;99204.91;;;10.22;39.29
11172;BME280;5642;50.830;12.082;2023-03-19T04:53:18;99195.44;;;10.16;39.31
11172;BME280;5642;50.830;12.082;2023-03-19T04:55:47;99202.19;;;10.25;39.31
11172;BME280;5642;50.830;12.082;2023-03-19T04:58:14;99211.75;;;10.26;39.44
11172;BME280;5642;50.830;12.082;2023-03-19T05:00:40;99207.56;;;10.20;39.71
11172;BME280;5642;50.830;12.082;2023-03-19T05:03:06;99177.69;;;9.99;39.60
11172;BME280;5642;50.830;12.082;2023-03-19T05:05:32;99163.16;;;9.91;39.55
11172;BME280;5642;50.830;12.082;2023-03-19T05:07:58;99175.91;;;10.01;39.37
11172;BME280;5642;50.830;12.082;2023-03-19T05:10:24;99188.63;;;10.12;39.55
11172;BME280;5642;50.830;12.082;2023-03-19T05:12:51;99216.78;;;10.32;39.17
11172;BME280;5642;50.830;12.082;2023-03-19T05:15:17;99219.38;;;10.32;39.52
11172;BME280;5642;50.830;12.082;2023-03-19T05:17:43;99216.94;;;10.27;39.33
11172;BME280;5642;50.830;12.082;2023-03-19T05:20:09;99214.56;;;10.19;39.36
11172;BME280;5642;50.830;12.082;2023-03-19T05:22:37;99222.47;;;10.16;39.46
11172;BME280;5642;50.830;12.082;2023-03-19T05:25:04;99216.72;;;10.07;39.54
11172;BME280;5642;50.830;12.082;2023-03-19T05:27:31;99219.44;;;10.02;39.51
11172;BME280;5642;50.830;12.082;2023-03-19T05:29:58;99205.78;;;9.94;39.66
11172;BME280;5642;50.830;12.082;2023-03-19T05:32:27;99193.84;;;9.86;39.74
11172;BME280;5642;50.830;12.082;2023-03-19T05:34:53;99222.03;;;10.04;39.56
11172;BME280;5642;50.830;12.082;2023-03-19T05:37:23;99226.34;;;10.05;39.55
11172;BME280;5642;50.830;12.082;2023-03-19T05:39:50;99235.97;;;10.04;39.50
11172;BME280;5642;50.830;12.082;2023-03-19T05:42:16;99231.75;;;10.00;39.50
11172;BME280;5642;50.830;12.082;2023-03-19T05:44:42;99217.22;;;9.90;39.69
11172;BME280;5642;50.830;12.082;2023-03-19T05:47:20;99235.16;;;10.02;39.56
11172;BME280;5642;50.830;12.082;2023-03-19T05:49:46;99208.66;;;9.87;39.77
11172;BME280;5642;50.830;12.082;2023-03-19T05:52:12;99224.63;;;10.04;39.38
11172;BME280;5642;50.830;12.082;2023-03-19T05:54:39;99248.34;;;10.27;39.63
11172;BME280;5642;50.830;12.082;2023-03-19T05:57:06;99253.03;;;10.44;39.32
11172;BME280;5642;50.830;12.082;2023-03-19T05:59:33;99188.22;;;10.24;39.17
11172;BME280;5642;50.830;12.082;2023-03-19T06:01:59;99244.34;;;10.68;38.95
11172;BME280;5642;50.830;12.082;2023-03-19T06:04:25;99256.84;;;10.85;39.02
11172;BME280;5642;50.830;12.082;2023-03-19T06:06:52;99267.75;;;10.97;38.94
11172;BME280;5642;50.830;12.082;2023-03-19T06:09:18;99230.66;;;10.85;38.80
11172;BME280;5642;50.830;12.082;2023-03-19T06:11:44;99212.94;;;10.91;38.80
11172;BME280;5642;50.830;12.082;2023-03-19T06:14:11;99198.53;;;11.03;38.66
11172;BME280;5642;50.830;12.082;2023-03-19T06:16:37;99166.34;;;10.99;38.46
11172;BME280;5642;50.830;12.082;2023-03-19T06:19:03;99232.19;;;11.60;38.84
11172;BME280;5642;50.830;12.082;2023-03-19T06:21:29;99241.09;;;11.80;38.50
11172;BME280;5642;50.830;12.082;2023-03-19T06:23:56;99226.72;;;11.90;38.61
11172;BME280;5642;50.830;12.082;2023-03-19T06:26:23;99247.25;;;12.22;38.42
11172;BME280;5642;50.830;12.082;2023-03-19T06:28:50;99202.81;;;12.18;38.00
11172;BME280;5642;50.830;12.082;2023-03-19T06:31:17;99217.25;;;12.49;38.35
11172;BME280;5642;50.830;12.082;2023-03-19T06:33:44;99193.53;;;12.71;38.12
11172;BME280;5642;50.830;12.082;2023-03-19T06:36:10;99180.28;;;12.93;37.46
11172;BME280;5642;50.830;12.082;2023-03-19T06:38:36;99250.69;;;13.64;37.45
11172;BME280;5642;50.830;12.082;2023-03-19T06:41:06;99258.00;;;13.95;37.25
11172;BME280;5642;50.830;12.082;2023-03-19T06:43:32;99259.16;;;14.26;36.96
11172;BME280;5642;50.830;12.082;2023-03-19T06:46:03;99251.78;;;14.51;36.97
11172;BME280;5642;50.830;12.082;2023-03-19T06:48:30;99261.78;;;14.96;36.82
11172;BME280;5642;50.830;12.082;2023-03-19T06:50:57;99258.41;;;15.27;36.41
11172;BME280;5642;50.830;12.082;2023-03-19T06:53:24;99254.44;;;15.51;36.42
11172;BME280;5642;50.830;12.082;2023-03-19T06:55:50;99198.63;;;15.42;36.50
11172;BME280;5642;50.830;12.082;2023-03-19T06:58:16;99200.75;;;15.68;36.25
11172;BME280;5642;50.830;12.082;2023-03-19T07:00:43;99193.56;;;15.86;36.26
11172;BME280;5642;50.830;12.082;2023-03-19T07:03:10;99223.28;;;16.21;36.18
11172;BME280;5642;50.830;12.082;2023-03-19T07:05:36;99250.31;;;16.56;36.19
11172;BME280;5642;50.830;12.082;2023-03-19T07:08:03;99240.09;;;16.65;36.32
11172;BME280;5642;50.830;12.082;2023-03-19T07:10:29;99256.56;;;16.84;36.26
11172;BME280;5642;50.830;12.082;2023-03-19T07:12:58;99245.84;;;17.02;36.15
11172;BME280;5642;50.830;12.082;2023-03-19T07:15:35;99208.41;;;17.08;36.07
11172;BME280;5642;50.830;12.082;2023-03-19T07:18:02;99213.78;;;17.35;36.08
11172;BME280;5642;50.830;12.082;2023-03-19T07:20:28;99254.50;;;18.03;35.81
11172;BME280;5642;50.830;12.082;2023-03-19T07:22:54;99214.31;;;18.36;35.56
11172;BME280;5642;50.830;12.082;2023-03-19T07:25:21;99230.28;;;19.13;34.81
11172;BME280;5642;50.830;12.082;2023-03-19T07:27:47;99246.13;;;20.02;34.47
11172;BME280;5642;50.830;12.082;2023-03-19T07:30:14;99246.41;;;20.82;34.06
11172;BME280;5642;50.830;12.082;2023-03-19T07:32:41;99249.91;;;21.73;33.59
11172;BME280;5642;50.830;12.082;2023-03-19T07:35:07;99248.00;;;22.61;33.25
11172;BME280;5642;50.830;12.082;2023-03-19T07:37:37;99245.09;;;23.47;32.95
11172;BME280;5642;50.830;12.082;2023-03-19T07:40:03;99245.06;;;24.17;32.62
11172;BME280;5642;50.830;12.082;2023-03-19T07:42:33;99241.63;;;24.36;32.88
11172;BME280;5642;50.830;12.082;2023-03-19T07:45:05;99239.75;;;24.66;32.67
11172;BME280;5642;50.830;12.082;2023-03-19T07:47:41;99201.56;;;24.83;32.36
11172;BME280;5642;50.830;12.082;2023-03-19T07:50:08;99182.56;;;25.23;32.05
11172;BME280;5642;50.830;12.082;2023-03-19T07:52:34;99197.50;;;25.72;31.93
11172;BME280;5642;50.830;12.082;2023-03-19T07:55:06;99208.09;;;26.19;31.67
11172;BME280;5642;50.830;12.082;2023-03-19T07:57:32;99191.28;;;26.17;31.62
11172;BME280;5642;50.830;12.082;2023-03-19T07:59:58;99180.69;;;26.15;31.65
11172;BME280;5642;50.830;12.082;2023-03-19T08:02:24;99200.75;;;26.38;31.50
11172;BME280;5642;50.830;12.082;2023-03-19T08:05:01;99208.09;;;26.72;31.46
11172;BME280;5642;50.830;12.082;2023-03-19T08:07:34;99205.56;;;27.06;31.15
11172;BME280;5642;50.830;12.082;2023-03-19T08:10:01;99185.09;;;27.13;31.17
11172;BME280;5642;50.830;12.082;2023-03-19T08:12:27;99195.94;;;27.29;31.35
11172;BME280;5642;50.830;12.082;2023-03-19T08:14:53;99191.78;;;27.09;31.20
11172;BME280;5642;50.830;12.082;2023-03-19T08:17:23;99234.56;;;27.20;31.56
11172;BME280;5642;50.830;12.082;2023-03-19T08:20:00;99243.63;;;27.19;31.49
11172;BME280;5642;50.830;12.082;2023-03-19T08:22:31;99189.84;;;26.75;31.51
11172;BME280;5642;50.830;12.082;2023-03-19T08:24:57;99195.91;;;26.77;31.58
11172;BME280;5642;50.830;12.082;2023-03-19T08:27:26;99184.97;;;26.79;31.93
11172;BME280;5642;50.830;12.082;2023-03-19T08:29:55;99228.91;;;27.05;31.62
11172;BME280;5642;50.830;12.082;2023-03-19T08:32:23;99223.13;;;27.00;31.65
11172;BME280;5642;50.830;12.082;2023-03-19T08:34:51;99210.00;;;26.79;31.65
11172;BME280;5642;50.830;12.082;2023-03-19T08:37:17;99210.84;;;26.80;31.71
11172;BME280;5642;50.830;12.082;2023-03-19T08:39:44;99232.34;;;26.80;31.72
11172;BME280;5642;50.830;12.082;2023-03-19T08:42:13;99208.53;;;26.41;31.98
11172;BME280;5642;50.830;12.082;2023-03-19T08:44:39;99214.13;;;26.03;31.71
11172;BME280;5642;50.830;12.082;2023-03-19T08:47:08;99239.47;;;25.54;32.03
11172;BME280;5642;50.830;12.082;2023-03-19T08:49:38;99245.56;;;25.00;32.40
11172;BME280;5642;50.830;12.082;2023-03-19T08:52:05;99235.69;;;24.33;32.81
11172;BME280;5642;50.830;12.082;2023-03-19T08:54:31;99259.38;;;23.97;32.89
11172;BME280;5642;50.830;12.082;2023-03-19T08:57:01;99221.38;;;23.33;33.29
11172;BME280;5642;50.830;12.082;2023-03-19T08:59:28;99214.19;;;22.82;33.27
11172;BME280;5642;50.830;12.082;2023-03-19T09:01:54;99224.50;;;22.55;33.52
11172;BME280;5642;50.830;12.082;2023-03-19T09:04:20;99243.03;;;22.36;33.47
11172;BME280;5642;50.830;12.082;2023-03-19T09:06:48;99218.09;;;22.14;33.55
11172;BME280;5642;50.830;12.082;2023-03-19T09:09:20;99207.72;;;22.00;33.51
11172;BME280;5642;50.830;12.082;2023-03-19T09:11:50;99215.78;;;22.10;33.22
11172;BME280;5642;50.830;12.082;2023-03-19T09:14:17;99202.97;;;22.04;33.24
11172;BME280;5642;50.830;12.082;2023-03-19T09:16:45;99184.81;;;21.98;33.33
11172;BME280;5642;50.830;12.082;2023-03-19T09:19:12;99228.38;;;22.30;33.04
11172;BME280;5642;50.830;12.082;2023-03-19T09:21:47;99212.94;;;22.34;33.13
11172;BME280;5642;50.830;12.082;2023-03-19T09:24:14;99238.63;;;22.66;33.01
11172;BME280;5642;50.830;12.082;2023-03-19T09:26:40;99234.34;;;22.86;32.71
11172;BME280;5642;50.830;12.082;2023-03-19T09:29:13;99255.09;;;23.24;32.78
11172;BME280;5642;50.830;12.082;2023-03-19T09:31:39;99210.59;;;23.14;32.81
11172;BME280;5642;50.830;12.082;2023-03-19T09:34:07;99250.44;;;23.47;32.45
11172;BME280;5642;50.830;12.082;2023-03-19T09:36:35;99265.59;;;23.58;32.53
11172;BME280;5642;50.830;12.082;2023-03-19T09:39:04;99264.50;;;23.70;32.48
11172;BME280;5642;50.830;12.082;2023-03-19T09:44:36;99253.75;;;23.60;32.77
11172;BME280;5642;50.830;12.082;2023-03-19T09:47:24;99269.34;;;23.86;32.57
11172;BME280;5642;50.830;12.082;2023-03-19T09:50:00;99225.16;;;23.91;32.55
11172;BME280;5642;50.830;12.082;2023-03-19T09:52:41;99267.97;;;24.50;32.33
11172;BME280;5642;50.830;12.082;2023-03-19T09:57:40;99254.63;;;25.45;31.96
11172;BME280;5642;50.830;12.082;2023-03-19T10:00:35;99219.06;;;25.80;31.67
11172;BME280;5642;50.830;12.082;2023-03-19T10:08:58;99269.13;;;27.41;31.43
11172;BME280;5642;50.830;12.082;2023-03-19T10:17:01;99206.63;;;27.81;31.31
11172;BME280;5642;50.830;12.082;2023-03-19T10:20:02;99227.66;;;27.85;31.30
11172;BME280;5642;50.830;12.082;2023-03-19T10:22:37;99254.63;;;27.93;31.17
11172;BME280;5642;50.830;12.082;2023-03-19T10:25:18;99197.88;;;27.45;31.04
11172;BME280;5642;50.830;12.082;2023-03-19T10:27:58;99190.97;;;27.42;31.48
11172;BME280;5642;50.830;12.082;2023-03-19T10:30:31;99221.84;;;27.56;31.02
11172;BME280;5642;50.830;12.082;2023-03-19T10:33:23;99254.81;;;27.92;31.04
11172;BME280;5642;50.830;12.082;2023-03-19T10:36:04;99195.69;;;27.74;31.19
11172;BME280;5642;50.830;12.082;2023-03-19T10:38:39;99228.09;;;27.98;31.20
11172;BME280;5642;50.830;12.082;2023-03-19T10:41:37;99264.53;;;28.35;30.67
11172;BME280;5642;50.830;12.082;2023-03-19T10:44:11;99234.38;;;28.23;30.86
11172;BME280;5642;50.830;12.082;2023-03-19T10:46:44;99241.81;;;28.29;30.72
11172;BME280;5642;50.830;12.082;2023-03-19T10:49:11;99246.88;;;28.32;30.78
11172;BME280;5642;50.830;12.082;2023-03-19T10:52:04;99244.34;;;28.31;31.01
11172;BME280;5642;50.830;12.082;2023-03-19T10:54:39;99227.19;;;28.32;30.73
11172;BME280;5642;50.830;12.082;2023-03-19T10:57:21;99250.13;;;28.60;30.58
11172;BME280;5642;50.830;12.082;2023-03-19T10:59:49;99235.28;;;28.64;30.89
11172;BME280;5642;50.830;12.082;2023-03-19T11:04:43;99229.75;;;28.66;30.34
11172;BME280;5642;50.830;12.082;2023-03-19T11:07:18;99241.19;;;28.60;30.51
11172;BME280;5642;50.830;12.082;2023-03-19T11:09:50;99284.81;;;28.71;30.23
11172;BME280;5642;50.830;12.082;2023-03-19T11:12:26;99293.22;;;28.52;30.74
11172;BME280;5642;50.830;12.082;2023-03-19T11:14:58;99238.66;;;28.00;30.37
11172;BME280;5642;50.830;12.082;2023-03-19T11:17:36;99298.31;;;28.13;30.38
11172;BME280;5642;50.830;12.082;2023-03-19T11:20:33;99262.72;;;27.59;30.43
11172;BME280;5642;50.830;12.082;2023-03-19T11:23:06;99260.66;;;27.27;30.57
11172;BME280;5642;50.830;12.082;2023-03-19T11:25:51;99266.63;;;26.96;30.65
11172;BME280;5642;50.830;12.082;2023-03-19T11:28:22;99317.16;;;26.92;30.77
11172;BME280;5642;50.830;12.082;2023-03-19T11:36:31;99319.50;;;25.68;31.21
11172;BME280;5642;50.830;12.082;2023-03-19T11:39:26;99315.75;;;25.22;31.44
11172;BME280;5642;50.830;12.082;2023-03-19T11:45:01;99319.13;;;24.07;32.01
11172;BME280;5642;50.830;12.082;2023-03-19T11:47:43;99294.41;;;23.54;32.20
11172;BME280;5642;50.830;12.082;2023-03-19T11:50:39;99306.34;;;23.29;32.13
11172;BME280;5642;50.830;12.082;2023-03-19T11:53:17;99332.34;;;23.27;32.07
11172;BME280;5642;50.830;12.082;2023-03-19T11:56:20;99302.94;;;22.86;32.18
11172;BME280;5642;50.830;12.082;2023-03-19T11:59:12;99340.88;;;22.57;32.50
11172;BME280;5642;50.830;12.082;2023-03-19T12:07:28;99349.53;;;21.94;32.47
11172;BME280;5642;50.830;12.082;2023-03-19T12:16:10;99359.03;;;21.06;32.87
11172;BME280;5642;50.830;12.082;2023-03-19T12:26:48;99381.38;;;20.07;33.60
11172;BME280;5642;50.830;12.082;2023-03-19T12:29:23;99375.56;;;19.89;33.64
11172;BME280;5642;50.830;12.082;2023-03-19T12:34:52;99335.03;;;19.22;33.81
11172;BME280;5642;50.830;12.082;2023-03-19T12:40:51;99378.78;;;19.16;33.80
11172;BME280;5642;50.830;12.082;2023-03-19T12:46:08;99316.53;;;18.68;33.99
11172;BME280;5642;50.830;12.082;2023-03-19T12:48:45;99352.47;;;18.87;34.13
11172;BME280;5642;50.830;12.082;2023-03-19T12:51:18;99371.22;;;18.84;34.25
11172;BME280;5642;50.830;12.082;2023-03-19T12:56:48;99369.53;;;18.56;34.47
11172;BME280;5642;50.830;12.082;2023-03-19T13:04:52;99373.56;;;18.06;34.93
11172;BME280;5642;50.830;12.082;2023-03-19T13:07:29;99332.59;;;17.83;35.15
11172;BME280;5642;50.830;12.082;2023-03-19T13:12:33;99362.09;;;18.06;35.10
11172;BME280;5642;50.830;12.082;2023-03-19T13:23:28;99357.56;;;18.08;35.25
11172;BME280;5642;50.830;12.082;2023-03-19T13:26:01;99328.44;;;17.93;35.26
11172;BME280;5642;50.830;12.082;2023-03-19T13:28:34;99347.16;;;18.05;35.35
11172;BME280;5642;50.830;12.082;2023-03-19T13:31:04;99345.28;;;18.07;35.35
11172;BME280;5642;50.830;12.082;2023-03-19T13:33:33;99295.81;;;17.79;35.37
11172;BME280;5642;50.830;12.082;2023-03-19T13:36:03;99284.84;;;17.71;35.36
11172;BME280;5642;50.830;12.082;2023-03-19T13:38:46;99320.41;;;17.95;35.29
11172;BME280;5642;50.830;12.082;2023-03-19T13:44:00;99310.59;;;17.83;35.53
11172;BME280;5642;50.830;12.082;2023-03-19T13:46:44;99329.28;;;17.94;35.58
11172;BME280;5642;50.830;12.082;2023-03-19T13:49:30;99292.69;;;17.72;35.58
11172;BME280;5642;50.830;12.082;2023-03-19T13:52:47;99318.69;;;17.80;35.62
11172;BME280;5642;50.830;12.082;2023-03-19T13:54:53;99289.63;;;17.50;35.58
11172;BME280;5642;50.830;12.082;2023-03-19T13:57:34;99254.81;;;17.28;35.61
11172;BME280;5642;50.830;12.082;2023-03-19T14:03:13;99316.78;;;17.39;35.93
11172;BME280;5642;50.830;12.082;2023-03-19T14:05:45;99293.97;;;17.22;35.99
11172;BME280;5642;50.830;12.082;2023-03-19T14:08:16;99323.78;;;17.40;36.14
11172;BME280;5642;50.830;12.082;2023-03-19T14:10:53;99323.97;;;17.37;36.07
11172;BME280;5642;50.830;12.082;2023-03-19T14:13:33;99301.25;;;17.19;36.13
11172;BME280;5642;50.830;12.082;2023-03-19T14:16:31;99305.41;;;17.23;36.28
11172;BME280;5642;50.830;12.082;2023-03-19T14:19:08;99249.69;;;16.82;36.34
11172;BME280;5642;50.830;12.082;2023-03-19T14:26:47;99294.00;;;16.93;36.38
11172;BME280;5642;50.830;12.082;2023-03-19T14:29:15;99290.88;;;16.86;36.33
11172;BME280;5642;50.830;12.082;2023-03-19T14:31:54;99322.41;;;17.05;36.47
11172;BME280;5642;50.830;12.082;2023-03-19T14:37:18;99246.31;;;16.64;36.48
11172;BME280;5642;50.830;12.082;2023-03-19T14:39:49;99323.06;;;17.08;36.47
11172;BME280;5642;50.830;12.082;2023-03-19T14:42:21;99315.59;;;17.15;36.30
11172;BME280;5642;50.830;12.082;2023-03-19T14:53:46;99315.63;;;17.43;36.33
11172;BME280;5642;50.830;12.082;2023-03-19T14:56:20;99282.63;;;17.35;36.36
11172;BME280;5642;50.830;12.082;2023-03-19T14:58:53;99309.41;;;17.58;36.21